createdAt,value
2022-12-04T00:00:01.566Z,100.00
2022-12-04T00:02:28.386Z,100.00
2022-12-04T00:04:55.030Z,100.00
2022-12-04T00:07:21.785Z,100.00
2022-12-04T00:09:48.429Z,100.00
2022-12-04T00:12:15.030Z,100.00
2022-12-04T00:15:16.639Z,100.00
2022-12-04T00:17:28.272Z,100.00
2022-12-04T00:19:55.119Z,100.00
2022-12-04T00:22:22.021Z,100.00
2022-12-04T00:24:48.742Z,100.00
2022-12-04T00:27:15.420Z,100.00
2022-12-04T00:29:42.076Z,100.00
2022-12-04T00:32:08.826Z,100.00
2022-12-04T00:34:35.466Z,100.00
2022-12-04T00:37:02.163Z,100.00
2022-12-04T00:39:28.754Z,100.00
2022-12-04T00:41:55.421Z,100.00
2022-12-04T00:44:22.286Z,100.00
2022-12-04T00:46:48.942Z,100.00
2022-12-04T00:49:15.542Z,100.00
2022-12-04T00:51:42.215Z,100.00
2022-12-04T00:54:08.799Z,100.00
2022-12-04T00:56:35.414Z,100.00
2022-12-04T00:59:02.160Z,100.00
2022-12-04T01:01:29.812Z,100.00
2022-12-04T01:03:56.904Z,100.00
2022-12-04T01:06:29.642Z,100.00
2022-12-04T01:08:57.808Z,100.00
2022-12-04T01:11:26.513Z,100.00
2022-12-04T01:13:53.504Z,100.00
2022-12-04T01:16:23.325Z,100.00
2022-12-04T01:18:50.223Z,100.00
2022-12-04T01:21:17.895Z,100.00
2022-12-04T01:23:44.714Z,100.00
2022-12-04T01:26:11.650Z,100.00
2022-12-04T01:28:38.544Z,100.00
2022-12-04T01:31:08.435Z,100.00
2022-12-04T01:33:36.551Z,100.00
2022-12-04T01:36:05.780Z,100.00
2022-12-04T01:38:33.647Z,100.00
2022-12-04T01:41:00.437Z,100.00
2022-12-04T01:43:29.834Z,100.00
2022-12-04T01:45:58.458Z,100.00
2022-12-04T01:48:35.947Z,100.00
2022-12-04T01:51:24.780Z,100.00
2022-12-04T01:53:59.333Z,100.00
2022-12-04T01:56:42.849Z,100.00
2022-12-04T01:59:12.665Z,100.00
2022-12-04T02:01:46.534Z,100.00
2022-12-04T02:04:13.172Z,100.00
2022-12-04T02:06:39.753Z,100.00
2022-12-04T02:09:06.770Z,100.00
2022-12-04T02:11:39.218Z,100.00
2022-12-04T02:14:24.302Z,100.00
2022-12-04T02:17:00.054Z,100.00
2022-12-04T02:19:54.889Z,100.00
2022-12-04T02:22:21.673Z,100.00
2022-12-04T02:24:57.186Z,100.00
2022-12-04T02:27:38.807Z,100.00
2022-12-04T02:30:11.769Z,100.00
2022-12-04T02:33:05.339Z,100.00
2022-12-04T02:35:47.155Z,100.00
2022-12-04T02:38:16.421Z,100.00
2022-12-04T02:40:58.965Z,100.00
2022-12-04T02:43:48.981Z,100.00
2022-12-04T02:46:24.877Z,100.00
2022-12-04T02:48:56.917Z,100.00
2022-12-04T02:51:28.414Z,99.25
2022-12-04T02:54:00.102Z,98.92
2022-12-04T02:56:30.745Z,100.00
2022-12-04T02:59:02.401Z,100.00
2022-12-04T03:01:34.973Z,100.00
2022-12-04T03:04:11.592Z,100.00
2022-12-04T03:06:42.386Z,100.00
2022-12-04T03:09:19.983Z,100.00
2022-12-04T03:11:52.491Z,100.00
2022-12-04T03:14:34.864Z,100.00
2022-12-04T03:17:06.439Z,100.00
2022-12-04T03:19:44.915Z,100.00
2022-12-04T03:22:17.376Z,100.00
2022-12-04T03:24:50.732Z,100.00
2022-12-04T03:27:20.387Z,100.00
2022-12-04T03:29:57.709Z,100.00
2022-12-04T03:32:24.465Z,100.00
2022-12-04T03:35:21.492Z,100.00
2022-12-04T03:38:00.530Z,100.00
2022-12-04T03:40:37.592Z,100.00
2022-12-04T03:43:16.482Z,100.00
2022-12-04T03:45:52.758Z,100.00
2022-12-04T03:48:37.120Z,100.00
2022-12-04T03:51:18.352Z,100.00
2022-12-04T03:53:56.711Z,100.00
2022-12-04T03:56:28.442Z,100.00
2022-12-04T03:59:00.250Z,100.00
2022-12-04T04:01:39.305Z,100.00
2022-12-04T04:04:10.260Z,100.00
2022-12-04T04:06:43.794Z,100.00
2022-12-04T04:09:15.123Z,100.00
2022-12-04T04:11:49.915Z,99.98
2022-12-04T04:14:44.659Z,99.78
2022-12-04T04:17:38.420Z,100.00
2022-12-04T04:20:32.181Z,100.00
2022-12-04T04:23:20.196Z,100.00
2022-12-04T04:25:47.434Z,100.00
2022-12-04T04:28:37.406Z,100.00
2022-12-04T04:31:13.173Z,100.00
2022-12-04T04:33:54.179Z,100.00
2022-12-04T04:36:52.675Z,100.00
2022-12-04T04:39:34.546Z,100.00
2022-12-04T04:42:36.153Z,100.00
2022-12-04T04:45:13.630Z,100.00
2022-12-04T04:48:02.263Z,100.00
2022-12-04T04:50:30.152Z,100.00
2022-12-04T04:53:02.343Z,100.00
2022-12-04T04:55:34.346Z,100.00
2022-12-04T04:58:16.253Z,100.00
2022-12-04T05:01:03.123Z,100.00
2022-12-04T05:03:30.556Z,100.00
2022-12-04T05:05:57.836Z,100.00
2022-12-04T05:08:24.644Z,100.00
2022-12-04T05:10:51.362Z,100.00
2022-12-04T05:13:18.884Z,100.00
2022-12-04T05:15:45.747Z,100.00
2022-12-04T05:18:12.475Z,100.00
2022-12-04T05:20:40.284Z,99.79
2022-12-04T05:23:07.363Z,99.99
2022-12-04T05:25:34.115Z,100.00
2022-12-04T05:28:00.770Z,100.00
2022-12-04T05:30:27.414Z,99.68
2022-12-04T05:32:54.129Z,98.74
2022-12-04T05:35:20.793Z,99.05
2022-12-04T05:37:47.549Z,99.39
2022-12-04T05:40:14.356Z,98.93
2022-12-04T05:42:41.101Z,99.40
2022-12-04T05:45:08.038Z,100.00
2022-12-04T05:47:42.671Z,99.69
2022-12-04T05:50:12.093Z,99.57
2022-12-04T05:52:38.999Z,99.92
2022-12-04T05:55:06.119Z,99.95
2022-12-04T05:57:32.746Z,100.00
2022-12-04T05:59:59.472Z,100.00
2022-12-04T06:02:26.148Z,100.00
2022-12-04T06:04:52.763Z,100.00
2022-12-04T06:07:19.474Z,99.66
2022-12-04T06:09:46.126Z,98.78
2022-12-04T06:12:12.786Z,99.90
2022-12-04T06:14:40.072Z,100.00
2022-12-04T06:17:07.209Z,100.00
2022-12-04T06:19:33.943Z,100.00
2022-12-04T06:22:00.614Z,100.00
2022-12-04T06:24:27.289Z,100.00
2022-12-04T06:29:47.347Z,100.00
2022-12-04T06:32:19.475Z,99.94
2022-12-04T06:34:51.662Z,100.00
2022-12-04T06:37:18.532Z,99.28
2022-12-04T06:39:45.267Z,98.77
2022-12-04T06:42:11.998Z,97.98
2022-12-04T06:44:38.750Z,98.71
2022-12-04T06:47:05.619Z,98.61
2022-12-04T06:49:32.323Z,98.29
2022-12-04T06:51:58.888Z,97.50
2022-12-04T06:54:26.160Z,96.82
2022-12-04T06:56:52.820Z,96.08
2022-12-04T06:59:19.523Z,96.10
2022-12-04T07:01:46.233Z,98.24
2022-12-04T07:04:13.119Z,99.92
2022-12-04T07:06:40.200Z,100.00
2022-12-04T07:09:10.535Z,100.00
2022-12-04T07:11:38.419Z,99.54
2022-12-04T07:14:05.149Z,100.00
2022-12-04T07:16:36.880Z,98.53
2022-12-04T07:19:07.661Z,97.46
2022-12-04T07:21:34.824Z,96.70
2022-12-04T07:24:02.313Z,95.80
2022-12-04T07:26:29.940Z,95.93
2022-12-04T07:28:57.785Z,95.68
2022-12-04T07:31:26.707Z,95.21
2022-12-04T07:33:55.337Z,95.43
2022-12-04T07:36:23.369Z,95.05
2022-12-04T07:38:51.137Z,94.22
2022-12-04T07:41:18.945Z,94.36
2022-12-04T07:43:45.957Z,94.53
2022-12-04T07:46:26.585Z,93.42
2022-12-04T07:48:56.620Z,93.14
2022-12-04T07:51:26.638Z,93.04
2022-12-04T07:53:54.351Z,94.32
2022-12-04T07:56:21.442Z,93.58
2022-12-04T07:58:48.229Z,94.38
2022-12-04T08:01:21.017Z,94.64
2022-12-04T08:03:49.914Z,94.90
2022-12-04T08:06:18.788Z,94.56
2022-12-04T08:08:46.302Z,94.28
2022-12-04T08:11:15.361Z,92.96
2022-12-04T08:13:42.087Z,93.07
2022-12-04T08:16:10.653Z,92.52
2022-12-04T08:18:37.598Z,94.92
2022-12-04T08:21:09.942Z,93.39
2022-12-04T08:23:37.172Z,95.84
2022-12-04T08:26:05.007Z,96.60
2022-12-04T08:28:32.842Z,95.63
2022-12-04T08:31:12.754Z,95.55
2022-12-04T08:33:40.992Z,94.80
2022-12-04T08:36:10.036Z,94.52
2022-12-04T08:38:36.896Z,93.21
2022-12-04T08:41:06.210Z,92.70
2022-12-04T08:43:33.179Z,91.55
2022-12-04T08:46:02.695Z,91.30
2022-12-04T08:48:29.606Z,90.69
2022-12-04T08:50:56.800Z,91.63
2022-12-04T08:53:23.770Z,91.76
2022-12-04T08:55:51.335Z,91.21
2022-12-04T08:58:19.300Z,90.61
2022-12-04T09:00:46.243Z,90.20
2022-12-04T09:03:14.791Z,90.89
2022-12-04T09:05:43.281Z,90.23
2022-12-04T09:08:09.912Z,89.45
2022-12-04T09:10:36.981Z,89.05
2022-12-04T09:13:03.916Z,89.04
2022-12-04T09:15:30.964Z,88.86
2022-12-04T09:17:58.317Z,88.68
2022-12-04T09:20:25.292Z,87.90
2022-12-04T09:23:04.037Z,87.88
2022-12-04T09:25:34.602Z,88.62
2022-12-04T09:28:01.254Z,89.17
2022-12-04T09:30:27.846Z,89.47
2022-12-04T09:32:54.552Z,88.83
2022-12-04T09:35:21.152Z,88.88
2022-12-04T09:37:47.724Z,88.01
2022-12-04T09:40:52.923Z,87.53
2022-12-04T09:43:39.042Z,88.48
2022-12-04T09:46:14.993Z,89.90
2022-12-04T09:48:44.339Z,90.17
2022-12-04T09:51:18.801Z,90.15
2022-12-04T09:53:47.284Z,90.42
2022-12-04T09:56:19.716Z,91.29
2022-12-04T09:59:03.037Z,91.71
2022-12-04T10:02:10.414Z,91.43
2022-12-04T10:04:37.100Z,91.87
2022-12-04T10:07:27.189Z,90.86
2022-12-04T10:10:13.199Z,90.38
2022-12-04T10:13:21.338Z,90.69
2022-12-04T10:16:22.683Z,89.75
2022-12-04T10:19:09.076Z,91.08
2022-12-04T10:22:14.226Z,90.86
2022-12-04T10:24:49.363Z,90.21
2022-12-04T10:27:24.131Z,89.98
2022-12-04T10:29:57.233Z,91.02
2022-12-04T10:32:27.445Z,89.92
2022-12-04T10:34:58.304Z,92.21
2022-12-04T10:37:26.519Z,92.38
2022-12-04T10:40:03.020Z,92.15
2022-12-04T10:42:46.947Z,94.40
2022-12-04T10:45:13.559Z,95.51
2022-12-04T10:47:44.651Z,97.81
2022-12-04T10:50:20.679Z,99.45
2022-12-04T10:52:48.087Z,99.43
2022-12-04T10:55:15.307Z,98.53
2022-12-04T10:57:44.721Z,98.91
2022-12-04T11:00:27.906Z,98.10
2022-12-04T11:02:57.504Z,97.05
2022-12-04T11:05:43.771Z,98.39
2022-12-04T11:08:24.279Z,99.60
2022-12-04T11:11:12.480Z,100.00
2022-12-04T11:13:39.806Z,100.00
2022-12-04T11:16:07.404Z,100.00
2022-12-04T11:18:46.140Z,100.00
2022-12-04T11:21:22.822Z,100.00
2022-12-04T11:23:51.807Z,100.00
2022-12-04T11:26:30.903Z,100.00
2022-12-04T11:29:01.395Z,100.00
2022-12-04T11:31:30.628Z,100.00
2022-12-04T11:34:14.471Z,100.00
2022-12-04T11:36:41.925Z,100.00
2022-12-04T11:39:11.695Z,100.00
2022-12-04T11:41:38.886Z,100.00
2022-12-04T11:44:06.751Z,100.00
2022-12-04T11:46:34.503Z,98.94
2022-12-04T11:49:03.326Z,98.39
2022-12-04T11:51:50.775Z,97.77
2022-12-04T11:54:55.732Z,97.27
2022-12-04T11:57:47.482Z,96.70
2022-12-04T12:00:19.655Z,97.38
2022-12-04T12:03:12.576Z,96.94
2022-12-04T12:05:57.523Z,96.36
2022-12-04T12:09:01.628Z,96.97
2022-12-04T12:11:51.859Z,97.64
2022-12-04T12:14:36.834Z,97.69
2022-12-04T12:17:23.529Z,96.35
2022-12-04T12:20:15.509Z,96.09
2022-12-04T12:22:57.238Z,97.25
2022-12-04T12:25:58.485Z,97.72
2022-12-04T12:28:45.423Z,98.06
2022-12-04T12:31:42.941Z,99.33
2022-12-04T12:34:39.298Z,98.00
2022-12-04T12:37:30.787Z,97.05
2022-12-04T12:40:06.041Z,95.63
2022-12-04T12:42:39.100Z,95.20
2022-12-04T12:45:39.681Z,99.76
2022-12-04T12:48:28.587Z,99.55
2022-12-04T12:51:28.426Z,96.54
2022-12-04T12:53:55.712Z,96.79
2022-12-04T12:56:33.848Z,95.25
2022-12-04T12:59:05.312Z,94.87
2022-12-04T13:02:01.011Z,95.47
2022-12-04T13:04:48.445Z,96.39
2022-12-04T13:07:15.056Z,98.15
2022-12-04T13:09:46.340Z,98.21
2022-12-04T13:12:15.749Z,97.84
2022-12-04T13:14:47.422Z,98.17
2022-12-04T13:17:27.722Z,98.89
2022-12-04T13:19:58.246Z,99.66
2022-12-04T13:22:51.925Z,100.00
2022-12-04T13:25:39.912Z,100.00
2022-12-04T13:28:22.643Z,98.88
2022-12-04T13:31:01.193Z,100.00
2022-12-04T13:34:10.367Z,100.00
2022-12-04T13:36:49.112Z,98.44
2022-12-04T13:39:30.527Z,100.00
2022-12-04T13:42:03.298Z,100.00
2022-12-04T13:44:32.490Z,100.00
2022-12-04T13:47:00.152Z,100.00
2022-12-04T13:49:30.742Z,100.00
2022-12-04T13:51:59.523Z,100.00
2022-12-04T13:54:36.747Z,100.00
2022-12-04T13:57:12.450Z,100.00
2022-12-04T13:59:40.090Z,100.00
2022-12-04T14:02:24.408Z,99.61
2022-12-04T14:05:05.421Z,98.51
2022-12-04T14:07:37.320Z,98.63
2022-12-04T14:10:09.060Z,96.88
2022-12-04T14:12:39.812Z,97.68
2022-12-04T14:15:28.952Z,97.98
2022-12-04T14:18:06.556Z,97.88
2022-12-04T14:20:35.038Z,97.94
2022-12-04T14:23:07.600Z,98.37
2022-12-04T14:25:38.008Z,100.00
2022-12-04T14:28:34.965Z,100.00
2022-12-04T14:31:08.041Z,100.00
2022-12-04T14:33:55.148Z,100.00
2022-12-04T14:36:28.161Z,99.59
2022-12-04T14:39:29.767Z,100.00
2022-12-04T14:42:27.836Z,100.00
2022-12-04T14:44:58.520Z,100.00
2022-12-04T14:47:36.359Z,100.00
2022-12-04T14:50:40.115Z,100.00
2022-12-04T14:53:17.037Z,100.00
2022-12-04T14:56:31.998Z,100.00
2022-12-04T14:59:04.834Z,100.00
2022-12-04T15:01:37.471Z,100.00
2022-12-04T15:04:22.186Z,100.00
2022-12-04T15:06:54.252Z,100.00
2022-12-04T15:09:44.516Z,100.00
2022-12-04T15:12:35.593Z,100.00
2022-12-04T15:15:25.678Z,100.00
2022-12-04T15:17:59.177Z,100.00
2022-12-04T15:20:27.255Z,100.00
2022-12-04T15:22:57.422Z,100.00
2022-12-04T15:25:41.119Z,100.00
2022-12-04T15:28:46.408Z,100.00
2022-12-04T15:31:19.062Z,100.00
2022-12-04T15:33:48.939Z,100.00
2022-12-04T15:36:34.214Z,100.00
2022-12-04T15:39:02.540Z,100.00
2022-12-04T15:41:37.000Z,100.00
2022-12-04T15:44:21.558Z,100.00
2022-12-04T15:46:48.413Z,100.00
2022-12-04T15:49:18.995Z,100.00
2022-12-04T15:51:47.719Z,100.00
2022-12-04T15:54:26.025Z,100.00
2022-12-04T15:57:14.118Z,100.00
2022-12-04T15:59:40.893Z,100.00
2022-12-04T16:02:25.806Z,100.00
2022-12-04T16:04:52.526Z,100.00
2022-12-04T16:07:26.526Z,100.00
2022-12-04T16:10:02.873Z,100.00
2022-12-04T16:12:32.073Z,100.00
2022-12-04T16:14:58.870Z,100.00
2022-12-04T16:17:33.993Z,100.00
2022-12-04T16:20:03.956Z,100.00
2022-12-04T16:22:31.469Z,100.00
2022-12-04T16:24:58.371Z,100.00
2022-12-04T16:27:25.763Z,100.00
2022-12-04T16:29:53.151Z,100.00
2022-12-04T16:32:22.449Z,100.00
2022-12-04T16:34:49.539Z,100.00
2022-12-04T16:37:19.262Z,100.00
2022-12-04T16:39:46.319Z,100.00
2022-12-04T16:42:30.477Z,100.00
2022-12-04T16:44:58.190Z,100.00
2022-12-04T16:47:25.249Z,100.00
2022-12-04T16:49:53.270Z,100.00
2022-12-04T16:52:20.786Z,100.00
2022-12-04T16:54:47.557Z,100.00
2022-12-04T16:57:14.188Z,100.00
2022-12-04T16:59:40.840Z,100.00
2022-12-04T17:02:15.987Z,100.00
2022-12-04T17:04:42.905Z,100.00
2022-12-04T17:07:09.661Z,100.00
2022-12-04T17:09:36.325Z,100.00
2022-12-04T17:12:02.941Z,100.00
2022-12-04T17:14:29.644Z,100.00
2022-12-04T17:16:58.628Z,100.00
2022-12-04T17:19:25.261Z,100.00
2022-12-04T17:21:51.904Z,100.00
2022-12-04T17:24:18.522Z,100.00
2022-12-04T17:26:45.161Z,100.00
2022-12-04T17:29:11.823Z,100.00
2022-12-04T17:31:38.605Z,100.00
2022-12-04T17:34:05.340Z,100.00
2022-12-04T17:36:32.122Z,100.00
2022-12-04T17:39:01.503Z,100.00
2022-12-04T17:41:28.445Z,100.00
2022-12-04T17:43:55.076Z,100.00
2022-12-04T17:46:24.447Z,100.00
2022-12-04T17:48:52.051Z,100.00
2022-12-04T17:51:23.631Z,100.00
2022-12-04T17:53:51.186Z,100.00
2022-12-04T17:56:20.429Z,100.00
2022-12-04T17:58:48.383Z,100.00
2022-12-04T18:01:17.884Z,100.00
2022-12-04T18:03:52.639Z,100.00
2022-12-04T18:06:22.936Z,100.00
2022-12-04T18:08:50.367Z,100.00
2022-12-04T18:11:20.572Z,100.00
2022-12-04T18:13:56.691Z,100.00
2022-12-04T18:16:24.644Z,100.00
2022-12-04T18:18:55.534Z,100.00
2022-12-04T18:21:22.825Z,100.00
2022-12-04T18:23:49.992Z,100.00
2022-12-04T18:26:19.414Z,100.00
2022-12-04T18:28:46.855Z,100.00
2022-12-04T18:31:14.926Z,100.00
2022-12-04T18:33:42.415Z,100.00
2022-12-04T18:36:14.877Z,100.00
2022-12-04T18:38:41.779Z,100.00
2022-12-04T18:41:11.410Z,100.00
2022-12-04T18:43:40.821Z,100.00
2022-12-04T18:46:11.736Z,100.00
2022-12-04T18:48:40.345Z,100.00
2022-12-04T18:51:15.480Z,100.00
2022-12-04T18:53:42.376Z,100.00
2022-12-04T18:56:09.070Z,100.00
2022-12-04T18:58:35.803Z,100.00
2022-12-04T19:01:10.936Z,100.00
2022-12-04T19:03:38.389Z,100.00
2022-12-04T19:06:05.537Z,100.00
2022-12-04T19:08:34.302Z,100.00
2022-12-04T19:11:11.617Z,100.00
2022-12-04T19:13:38.748Z,100.00
2022-12-04T19:16:11.437Z,100.00
2022-12-04T19:18:38.137Z,100.00
2022-12-04T19:21:06.185Z,100.00
2022-12-04T19:23:32.808Z,100.00
2022-12-04T19:26:00.784Z,100.00
2022-12-04T19:28:27.839Z,100.00
2022-12-04T19:30:55.245Z,100.00
2022-12-04T19:33:24.078Z,100.00
2022-12-04T19:36:17.172Z,100.00
2022-12-04T19:38:44.270Z,100.00
2022-12-04T19:41:13.932Z,100.00
2022-12-04T19:43:43.547Z,100.00
2022-12-04T19:46:12.427Z,100.00
2022-12-04T19:48:39.276Z,100.00
2022-12-04T19:51:08.740Z,100.00
2022-12-04T19:53:40.640Z,100.00
2022-12-04T19:56:10.561Z,100.00
2022-12-04T19:58:37.528Z,100.00
2022-12-04T20:01:06.744Z,100.00
2022-12-04T20:03:35.011Z,100.00
2022-12-04T20:06:06.870Z,100.00
2022-12-04T20:08:34.697Z,100.00
2022-12-04T20:11:20.045Z,100.00
2022-12-04T20:13:47.864Z,100.00
2022-12-04T20:16:18.508Z,100.00
2022-12-04T20:18:45.783Z,100.00
2022-12-04T20:21:13.736Z,100.00
2022-12-04T20:23:51.145Z,100.00
2022-12-04T20:26:20.991Z,100.00
2022-12-04T20:28:47.825Z,100.00
2022-12-04T20:31:19.304Z,100.00
2022-12-04T20:33:48.256Z,100.00
2022-12-04T20:36:16.169Z,100.00
2022-12-04T20:38:42.879Z,100.00
2022-12-04T20:41:13.282Z,100.00
2022-12-04T20:43:40.022Z,100.00
2022-12-04T20:46:34.912Z,100.00
2022-12-04T20:49:04.291Z,100.00
2022-12-04T20:51:37.518Z,100.00
2022-12-04T20:54:05.195Z,100.00
2022-12-04T20:56:35.163Z,100.00
2022-12-04T20:59:08.179Z,100.00
2022-12-04T21:01:35.746Z,100.00
2022-12-04T21:04:04.010Z,100.00
2022-12-04T21:06:35.085Z,100.00
2022-12-04T21:09:08.013Z,100.00
2022-12-04T21:11:37.431Z,100.00
2022-12-04T21:14:25.704Z,100.00
2022-12-04T21:16:52.402Z,100.00
2022-12-04T21:19:20.961Z,100.00
2022-12-04T21:21:48.360Z,100.00
2022-12-04T21:24:18.735Z,100.00
2022-12-04T21:26:45.548Z,100.00
2022-12-04T21:29:12.194Z,100.00
2022-12-04T21:31:39.411Z,100.00
2022-12-04T21:34:08.302Z,100.00
2022-12-04T21:36:34.949Z,100.00
2022-12-04T21:39:01.923Z,100.00
2022-12-04T21:41:47.124Z,100.00
2022-12-04T21:44:17.030Z,100.00
2022-12-04T21:46:44.700Z,100.00
2022-12-04T21:49:12.480Z,100.00
2022-12-04T21:51:56.803Z,100.00
2022-12-04T21:54:24.341Z,100.00
2022-12-04T21:56:50.976Z,100.00
2022-12-04T21:59:18.817Z,100.00
2022-12-04T22:01:45.984Z,100.00
2022-12-04T22:04:12.793Z,100.00
2022-12-04T22:06:39.570Z,100.00
2022-12-04T22:09:07.745Z,100.00
2022-12-04T22:11:34.481Z,100.00
2022-12-04T22:14:01.193Z,100.00
2022-12-04T22:16:30.702Z,100.00
2022-12-04T22:18:58.868Z,100.00
2022-12-04T22:21:26.969Z,100.00
2022-12-04T22:23:58.123Z,100.00
2022-12-04T22:26:25.192Z,100.00
2022-12-04T22:28:52.062Z,100.00
2022-12-04T22:31:22.008Z,100.00
2022-12-04T22:33:51.195Z,100.00
2022-12-04T22:36:20.682Z,100.00
2022-12-04T22:39:08.284Z,100.00
2022-12-04T22:41:35.334Z,100.00
2022-12-04T22:44:02.016Z,100.00
2022-12-04T22:46:28.839Z,100.00
2022-12-04T22:48:55.535Z,100.00
2022-12-04T22:51:22.831Z,100.00
2022-12-04T22:53:54.743Z,100.00
2022-12-04T22:56:24.183Z,100.00
2022-12-04T22:58:51.355Z,100.00
2022-12-04T23:01:22.333Z,100.00
2022-12-04T23:03:50.146Z,100.00
2022-12-04T23:06:18.552Z,100.00
2022-12-04T23:08:46.157Z,100.00
2022-12-04T23:11:16.600Z,100.00
2022-12-04T23:13:44.481Z,100.00
2022-12-04T23:16:15.559Z,100.00
2022-12-04T23:18:45.089Z,100.00
2022-12-04T23:21:14.012Z,100.00
2022-12-04T23:23:42.722Z,100.00
2022-12-04T23:26:12.443Z,100.00
2022-12-04T23:28:39.431Z,100.00
2022-12-04T23:31:06.491Z,100.00
2022-12-04T23:33:33.499Z,100.00
2022-12-04T23:36:01.533Z,100.00
2022-12-04T23:38:29.728Z,100.00
2022-12-04T23:41:17.859Z,100.00
2022-12-04T23:43:45.621Z,100.00
2022-12-04T23:46:14.490Z,100.00
2022-12-04T23:48:42.956Z,100.00
2022-12-04T23:51:10.776Z,100.00
2022-12-04T23:53:37.709Z,100.00
2022-12-04T23:56:13.376Z,100.00
2022-12-04T23:58:41.517Z,100.00
